Time;durP1;ratioP1;P1;durP2;ratioP2;P2;SDS_P1;SDS_P2;PMS_P1;PMS_P2;Temp;Humidity;BMP_temperature;BMP_pressure;BME280_temperature;BME280_humidity;BME280_pressure;Samples;Min_cycle;Max_cycle;Signal;HPM_P1;HPM_P2
2024/04/28 00:02:39;;;;;;;1.83;1.73;;;;;;;14.33;68.66;99675.63;5021474;28;20473;-85
2024/04/28 00:05:28;;;;;;;2.63;2.13;;;;;;;14.26;68.74;99670.66;5029765;28;20911;-84
2024/04/28 00:08:17;;;;;;;2.10;1.90;;;;;;;14.22;68.82;99664.63;5017258;28;20867;-85
2024/04/28 00:11:06;;;;;;;2.10;1.90;;;;;;;14.19;68.89;99660.13;5024998;28;20933;-85
2024/04/28 00:13:55;;;;;;;2.57;2.10;;;;;;;14.18;69.30;99653.81;5006183;28;20934;-85
2024/04/28 00:16:43;;;;;;;1.83;1.73;;;;;;;14.13;69.61;99649.06;5019174;28;20535;-85
2024/04/28 00:19:35;;;;;;;2.60;2.40;;;;;;;14.10;70.09;99646.56;5003675;28;20538;-85
2024/04/28 00:22:23;;;;;;;2.67;2.47;;;;;;;14.08;70.01;99647.09;5004064;28;20470;-85
2024/04/28 00:25:12;;;;;;;2.30;2.10;;;;;;;14.07;69.83;99636.50;5023074;28;20940;-85
2024/04/28 00:28:01;;;;;;;2.50;2.30;;;;;;;14.07;70.01;99642.06;5025884;28;22754;-85
2024/04/28 00:30:49;;;;;;;3.73;2.30;;;;;;;14.06;69.87;99635.00;5018266;28;20467;-85
2024/04/28 00:33:38;;;;;;;2.67;2.47;;;;;;;14.06;69.80;99635.00;5016085;28;20811;-84
2024/04/28 00:36:29;;;;;;;8.03;2.10;;;;;;;14.05;69.55;99625.19;5026856;28;20829;-86
2024/04/28 00:39:18;;;;;;;2.43;2.33;;;;;;;14.05;69.30;99611.28;5031187;28;21148;-84
2024/04/28 00:42:07;;;;;;;3.00;2.40;;;;;;;14.06;68.87;99607.22;5005162;28;20819;-85
2024/04/28 00:44:56;;;;;;;4.27;2.40;;;;;;;14.06;68.80;99596.13;5017379;28;20527;-85
2024/04/28 00:47:45;;;;;;;2.10;2.00;;;;;;;14.07;68.92;99595.56;5023205;28;20526;-85
2024/04/28 00:50:34;;;;;;;2.50;2.30;;;;;;;14.06;68.84;99585.00;5024419;28;20526;-86
2024/04/28 00:53:26;;;;;;;2.07;1.97;;;;;;;14.01;68.90;99583.03;5007288;28;20513;-84
2024/04/28 00:56:14;;;;;;;2.50;2.27;;;;;;;13.96;68.95;99592.94;5015511;28;20470;-86
2024/04/28 00:59:03;;;;;;;2.90;2.27;;;;;;;13.90;69.50;99591.50;5015667;28;20523;-85
2024/04/28 01:01:52;;;;;;;2.10;2.00;;;;;;;13.84;69.65;99585.28;5013625;28;20581;-84
2024/04/28 01:04:41;;;;;;;2.63;2.27;;;;;;;13.81;69.28;99586.31;5017660;28;20941;-86
2024/04/28 01:07:29;;;;;;;3.63;2.20;;;;;;;13.82;69.76;99596.16;4993141;28;20909;-84
2024/04/28 01:10:21;;;;;;;2.40;2.30;;;;;;;13.80;69.67;99602.25;5019664;28;20470;-84
2024/04/28 01:13:11;;;;;;;2.20;2.10;;;;;;;13.83;69.42;99603.22;5033400;28;20461;-84
2024/04/28 01:16:00;;;;;;;4.00;2.27;;;;;;;13.86;69.25;99607.75;5004922;28;20806;-84
2024/04/28 01:18:48;;;;;;;2.83;2.57;;;;;;;13.84;69.09;99596.41;4996378;28;20531;-84
2024/04/28 01:21:39;;;;;;;2.27;2.13;;;;;;;13.84;69.28;99590.84;5019282;28;20916;-84
2024/04/28 01:24:28;;;;;;;3.47;2.10;;;;;;;13.83;69.35;99595.63;5019690;28;20596;-84
2024/04/28 01:27:18;;;;;;;2.37;2.17;;;;;;;13.80;69.61;99601.50;5024032;28;21006;-83
2024/04/28 01:30:08;;;;;;;2.30;2.10;;;;;;;13.76;69.75;99601.03;5021333;28;20852;-84
2024/04/28 01:32:59;;;;;;;3.07;2.10;;;;;;;13.73;69.40;99590.97;5002079;28;20525;-84
2024/04/28 01:35:48;;;;;;;2.27;2.17;;;;;;;13.70;69.32;99589.25;5022866;28;20596;-84
2024/04/28 01:38:42;;;;;;;2.00;1.90;;;;;;;13.66;69.42;99591.56;5023933;28;22295;-84
2024/04/28 01:41:31;;;;;;;2.50;2.30;;;;;;;13.68;68.18;99585.47;5018666;28;20470;-83
2024/04/28 01:44:20;;;;;;;2.13;1.80;;;;;;;13.71;67.45;99581.66;5015643;28;22145;-84
2024/04/28 01:47:08;;;;;;;1.80;1.70;;;;;;;13.73;66.44;99590.97;5024841;28;20474;-85
2024/04/28 01:49:57;;;;;;;2.00;1.80;;;;;;;13.75;65.04;99588.44;5015479;28;20457;-85
2024/04/28 01:52:46;;;;;;;2.07;1.97;;;;;;;13.83;64.05;99597.66;5004990;28;20883;-84
2024/04/28 01:55:37;;;;;;;1.93;1.70;;;;;;;13.89;63.02;99592.78;5037368;28;20477;-86
2024/04/28 01:58:26;;;;;;;1.90;1.80;;;;;;;13.98;61.29;99589.66;5019406;28;20585;-84
2024/04/28 02:01:23;;;;;;;2.20;1.63;;;;;;;14.00;61.03;99587.09;5019958;28;21006;-84
2024/04/28 02:04:11;;;;;;;2.80;1.40;;;;;;;14.01;61.33;99592.13;5016869;28;21540;-84
2024/04/28 02:07:00;;;;;;;1.70;1.60;;;;;;;14.05;60.73;99597.38;5027841;28;20853;-84
2024/04/28 02:09:49;;;;;;;3.07;1.90;;;;;;;14.08;59.97;99591.53;5025849;28;21030;-84
2024/04/28 02:12:40;;;;;;;1.80;1.70;;;;;;;14.11;59.93;99592.50;5033650;28;20800;-84
2024/04/28 02:15:29;;;;;;;1.60;1.50;;;;;;;14.14;59.61;99586.63;4998251;28;20843;-84
2024/04/28 02:18:18;;;;;;;1.77;1.67;;;;;;;14.18;59.35;99592.69;5001256;28;22215;-84
2024/04/28 02:21:07;;;;;;;2.13;1.70;;;;;;;14.27;58.13;99599.88;5002638;28;20875;-83
2024/04/28 02:23:55;;;;;;;1.50;1.40;;;;;;;14.33;57.36;99608.91;5001170;28;20987;-84
2024/04/28 02:26:44;;;;;;;1.80;1.70;;;;;;;14.32;58.23;99612.94;5012293;28;20467;-84
2024/04/28 02:29:36;;;;;;;1.63;1.53;;;;;;;14.33;58.18;99606.88;5022742;28;20961;-85
2024/04/28 02:32:24;;;;;;;2.73;1.80;;;;;;;14.41;57.02;99601.44;5000107;28;20470;-84
2024/04/28 02:35:13;;;;;;;1.80;1.70;;;;;;;14.49;56.79;99610.69;5021389;28;20761;-84
2024/04/28 02:38:02;;;;;;;1.67;1.57;;;;;;;14.50;57.11;99612.19;5035782;28;20846;-84
2024/04/28 02:40:51;;;;;;;2.10;1.63;;;;;;;14.53;56.98;99600.03;5028889;28;20855;-83
2024/04/28 02:43:40;;;;;;;4.37;1.47;;;;;;;14.54;57.27;99609.84;5018478;28;20467;-83
2024/04/28 02:49:36;;;;;;;1.97;1.77;;;;;;;14.67;56.46;99609.91;5022924;28;20711;-84
2024/04/28 02:52:25;;;;;;;4.60;1.50;;;;;;;14.69;57.23;99599.00;5018377;28;20466;-84
2024/04/28 02:55:14;;;;;;;4.70;1.33;;;;;;;14.65;57.42;99606.91;5021182;28;20553;-84
2024/04/28 02:58:02;;;;;;;2.43;1.60;;;;;;;14.68;56.88;99601.03;5026856;28;20534;-84
2024/04/28 03:00:52;;;;;;;2.10;1.40;;;;;;;14.78;56.06;99610.50;5026263;28;20596;-84
2024/04/28 03:03:46;;;;;;;1.40;1.30;;;;;;;14.79;56.31;99611.22;5027537;28;20472;-84
2024/04/28 03:06:42;;;;;;;2.73;1.40;;;;;;;14.74;56.61;99609.28;5025802;28;20553;-85
2024/04/28 03:09:31;;;;;;;1.83;1.73;;;;;;;14.73;56.98;99613.34;5001333;28;20470;-84
2024/04/28 03:12:23;;;;;;;1.60;1.50;;;;;;;14.63;57.12;99615.03;5024713;28;20575;-84
2024/04/28 03:15:12;;;;;;;1.60;1.50;;;;;;;14.62;57.24;99619.09;5029625;28;20467;-83
2024/04/28 03:18:01;;;;;;;2.27;1.70;;;;;;;14.57;57.57;99617.91;5003810;28;20464;-84
2024/04/28 03:20:53;;;;;;;1.40;1.30;;;;;;;14.64;57.08;99627.66;5026566;28;20467;-84
2024/04/28 03:23:42;;;;;;;2.40;1.20;;;;;;;14.64;56.80;99605.41;5021143;28;20939;-84
2024/04/28 03:26:31;;;;;;;2.13;1.50;;;;;;;14.65;56.25;99623.59;5011459;28;20999;-84
2024/04/28 03:29:20;;;;;;;1.40;1.30;;;;;;;14.64;56.48;99624.88;5032404;28;20522;-84
2024/04/28 03:32:09;;;;;;;3.00;1.60;;;;;;;14.62;56.61;99619.84;5025077;28;20517;-83
2024/04/28 03:34:58;;;;;;;1.50;1.40;;;;;;;14.63;56.97;99626.91;5030439;28;20458;-83
2024/04/28 03:37:49;;;;;;;1.60;1.50;;;;;;;14.67;56.90;99632.16;5026572;28;20579;-84
2024/04/28 03:40:39;;;;;;;1.80;1.27;;;;;;;14.61;57.19;99629.47;5021064;28;20523;-84
2024/04/28 03:43:27;;;;;;;1.60;1.50;;;;;;;14.57;58.47;99639.38;5025981;28;20474;-84
2024/04/28 03:46:16;;;;;;;2.50;1.50;;;;;;;14.60;57.50;99643.88;5021528;28;20803;-85
2024/04/28 03:49:06;;;;;;;1.43;1.30;;;;;;;14.55;57.95;99647.50;5022178;28;20595;-84
2024/04/28 03:51:55;;;;;;;1.70;1.53;;;;;;;14.58;58.09;99657.56;5018825;28;20467;-84
2024/04/28 03:54:47;;;;;;;1.87;1.50;;;;;;;14.71;57.62;99666.00;5017901;28;20862;-85
2024/04/28 03:57:36;;;;;;;7.30;1.60;;;;;;;14.61;58.67;99664.84;5027336;28;21439;-84
2024/04/28 04:00:24;;;;;;;2.00;1.67;;;;;;;14.61;58.97;99670.41;5002342;28;22249;-84
2024/04/28 04:03:13;;;;;;;1.97;1.53;;;;;;;14.64;58.64;99681.22;5021863;28;20458;-83
2024/04/28 04:06:02;;;;;;;3.57;1.83;;;;;;;14.59;59.29;99670.19;5003366;28;20517;-84
2024/04/28 04:08:51;;;;;;;1.50;1.40;;;;;;;14.57;59.83;99672.75;5025501;28;20478;-84
2024/04/28 04:11:42;;;;;;;2.07;1.70;;;;;;;14.58;59.90;99682.59;5010191;28;20493;-83
2024/04/28 04:14:31;;;;;;;2.70;1.60;;;;;;;14.62;59.86;99686.56;5024772;28;20811;-84
2024/04/28 04:17:20;;;;;;;2.13;1.70;;;;;;;14.61;60.54;99685.06;5007292;28;20524;-85
2024/04/28 04:20:09;;;;;;;2.70;1.70;;;;;;;14.69;60.25;99685.22;5024294;28;20457;-84
2024/04/28 04:22:58;;;;;;;1.90;1.80;;;;;;;14.70;60.76;99678.38;5028346;28;20466;-82
2024/04/28 04:25:46;;;;;;;1.83;1.50;;;;;;;14.64;61.61;99684.00;5006932;28;20478;-84
2024/04/28 04:28:38;;;;;;;1.80;1.70;;;;;;;14.64;61.71;99700.69;5027253;28;20478;-84
2024/04/28 04:31:27;;;;;;;2.97;1.70;;;;;;;14.68;61.87;99700.41;5034301;28;20529;-83
2024/04/28 04:34:16;;;;;;;2.10;1.60;;;;;;;14.69;62.13;99701.91;5018723;28;20513;-84
2024/04/28 04:37:05;;;;;;;2.17;1.97;;;;;;;14.74;62.01;99703.88;5019221;28;20783;-84
2024/04/28 04:39:54;;;;;;;2.67;1.90;;;;;;;14.80;61.50;99687.81;5018845;28;20478;-84
2024/04/28 04:42:43;;;;;;;2.20;1.80;;;;;;;14.76;62.02;99690.19;4994439;28;20500;-83
2024/04/28 04:45:36;;;;;;;2.60;2.10;;;;;;;14.79;62.04;99700.25;5022121;28;20486;-83
2024/04/28 04:48:25;;;;;;;1.73;1.63;;;;;;;14.84;61.86;99685.50;5020553;28;20474;-84
2024/04/28 04:51:14;;;;;;;2.73;1.73;;;;;;;14.84;62.12;99691.06;5021476;28;20849;-84
2024/04/28 04:54:06;;;;;;;4.57;1.60;;;;;;;14.88;61.70;99674.81;5000332;28;20474;-83
2024/04/28 04:56:55;;;;;;;3.60;1.80;;;;;;;14.93;62.14;99682.34;5025054;28;20468;-85
2024/04/28 04:59:43;;;;;;;1.67;1.57;;;;;;;14.92;62.28;99692.69;5010164;28;20883;-84
2024/04/28 05:02:34;;;;;;;4.57;1.97;;;;;;;14.91;62.24;99691.19;5024035;28;21133;-85
2024/04/28 05:05:24;;;;;;;2.87;1.70;;;;;;;14.94;62.40;99683.84;5002851;28;20573;-85
2024/04/28 05:08:12;;;;;;;1.57;1.40;;;;;;;14.97;62.20;99688.34;5000702;28;21202;-83
2024/04/28 05:11:14;;;;;;;;;;;;;;;;;;;;;
2024/04/28 05:14:08;;;;;;;2.23;1.60;;;;;;;15.02;62.49;99696.59;5012235;28;20513;-83
2024/04/28 05:16:56;;;;;;;1.97;1.70;;;;;;;15.12;62.22;99717.19;5028962;28;20869;-84
2024/04/28 05:19:48;;;;;;;3.20;1.60;;;;;;;15.22;62.37;99714.78;5014998;28;20887;-84
2024/04/28 05:22:37;;;;;;;2.33;1.83;;;;;;;15.30;62.26;99710.09;5031847;28;21029;-84
2024/04/28 05:25:26;;;;;;;1.90;1.50;;;;;;;15.33;62.32;99722.97;5024572;28;20511;-85
2024/04/28 05:28:15;;;;;;;3.10;2.17;;;;;;;15.31;62.88;99733.88;5027614;28;20466;-84
2024/04/28 05:31:03;;;;;;;3.93;1.70;;;;;;;15.48;61.89;99726.00;5025181;28;21125;-84
2024/04/28 05:33:52;;;;;;;2.20;1.53;;;;;;;15.47;62.30;99714.13;5031239;28;20986;-85
2024/04/28 05:36:44;;;;;;;2.87;2.30;;;;;;;15.56;61.96;99715.72;5031920;28;20821;-85
2024/04/28 05:39:33;;;;;;;3.63;2.20;;;;;;;15.65;61.39;99720.88;5023783;28;20562;-83
2024/04/28 05:42:22;;;;;;;3.20;1.87;;;;;;;15.66;61.91;99725.16;5004838;28;20596;-85
2024/04/28 05:45:20;;;;;;;5.57;2.23;;;;;;;15.73;61.64;99716.19;5011277;28;20795;-84
2024/04/28 05:48:10;;;;;;;3.43;1.67;;;;;;;15.75;61.71;99716.41;5029960;28;20470;-85
2024/04/28 05:51:01;;;;;;;3.60;1.60;;;;;;;15.74;61.67;99712.13;5016437;28;20830;-84
2024/04/28 05:53:53;;;;;;;3.90;1.90;;;;;;;15.82;61.77;99721.34;5001226;28;20463;-83
2024/04/28 05:56:41;;;;;;;4.50;2.07;;;;;;;16.04;60.69;99724.47;5008705;28;20468;-85
2024/04/28 05:59:30;;;;;;;2.00;1.50;;;;;;;16.08;61.00;99721.38;5026408;28;20868;-85
2024/04/28 06:02:19;;;;;;;2.80;1.63;;;;;;;16.11;61.01;99711.91;5029492;28;20463;-81
2024/04/28 06:05:08;;;;;;;2.43;1.60;;;;;;;16.09;60.40;99708.91;5027720;28;20584;-84
2024/04/28 06:07:58;;;;;;;1.70;1.60;;;;;;;16.22;60.47;99708.91;5025967;28;20517;-85
2024/04/28 06:10:49;;;;;;;2.57;2.03;;;;;;;16.09;60.81;99711.72;5009516;28;20893;-85
2024/04/28 06:13:38;;;;;;;2.23;1.80;;;;;;;15.95;62.11;99719.31;5021158;28;20822;-83
2024/04/28 06:16:28;;;;;;;3.83;1.63;;;;;;;15.89;61.96;99737.44;5025571;28;20932;-84
2024/04/28 06:19:17;;;;;;;2.57;2.00;;;;;;;15.99;61.53;99730.16;5006446;28;21173;-85
2024/04/28 06:22:06;;;;;;;1.77;1.50;;;;;;;16.08;61.52;99735.31;5027350;28;20847;-85
2024/04/28 06:24:55;;;;;;;1.73;1.53;;;;;;;16.13;61.12;99734.44;5010594;28;20804;-84
2024/04/28 06:27:46;;;;;;;2.57;2.00;;;;;;;16.03;61.65;99750.84;5028510;28;20524;-85
2024/04/28 06:30:38;;;;;;;4.20;1.80;;;;;;;15.97;62.35;99760.59;5032902;28;20853;-84
2024/04/28 06:33:28;;;;;;;4.13;1.70;;;;;;;15.88;62.38;99764.53;5035773;28;20459;-84
2024/04/28 06:36:17;;;;;;;2.50;1.70;;;;;;;15.79;63.09;99769.78;5028020;28;20819;-84
2024/04/28 06:39:07;;;;;;;2.10;1.33;;;;;;;15.83;63.07;99767.41;5034744;28;20465;-85
2024/04/28 06:41:56;;;;;;;4.10;1.90;;;;;;;15.84;62.92;99766.91;5026681;28;20862;-85
2024/04/28 06:44:47;;;;;;;3.40;2.03;;;;;;;16.04;62.42;99771.09;4992796;28;20467;-84
2024/04/28 06:47:36;;;;;;;3.00;1.73;;;;;;;16.00;62.33;99770.66;5025698;28;20515;-85
2024/04/28 06:50:25;;;;;;;3.27;1.60;;;;;;;16.13;61.87;99767.88;5039405;28;20552;-84
2024/04/28 06:53:14;;;;;;;1.80;1.43;;;;;;;16.34;60.81;99765.94;5043241;28;20883;-83
2024/04/28 06:56:03;;;;;;;2.50;1.40;;;;;;;16.25;61.45;99752.44;5040109;28;20465;-85
2024/04/28 06:58:52;;;;;;;1.97;1.30;;;;;;;16.35;60.87;99743.09;5029254;28;20528;-84
2024/04/28 07:01:44;;;;;;;3.00;1.33;;;;;;;16.41;59.73;99737.44;5015106;28;20456;-84
2024/04/28 07:04:32;;;;;;;3.37;1.50;;;;;;;16.56;59.71;99734.84;5033446;28;20927;-85
2024/04/28 07:07:22;;;;;;;3.07;1.00;;;;;;;16.43;59.91;99734.84;5019291;28;20583;-83
2024/04/28 07:10:15;;;;;;;2.63;1.67;;;;;;;16.41;60.22;99729.06;5008721;28;20455;-84
2024/04/28 07:13:04;;;;;;;3.17;1.30;;;;;;;16.53;59.42;99721.97;5024891;28;20596;-85
2024/04/28 07:15:54;;;;;;;1.37;1.23;;;;;;;16.81;58.28;99720.09;4997881;28;21137;-85
2024/04/28 07:18:46;;;;;;;2.57;1.20;;;;;;;16.67;58.03;99719.38;5023707;28;20804;-86
2024/04/28 07:21:35;;;;;;;5.60;1.17;;;;;;;16.80;57.54;99730.50;5054353;28;20796;-84
2024/04/28 07:24:24;;;;;;;3.20;1.60;;;;;;;16.67;57.52;99741.69;5041502;28;20813;-84
2024/04/28 07:27:14;;;;;;;1.50;1.30;;;;;;;16.74;57.87;99749.41;5009737;28;20509;-85
2024/04/28 07:30:05;;;;;;;2.83;1.43;;;;;;;16.82;56.96;99764.19;5029930;28;20880;-85
2024/04/28 07:32:54;;;;;;;3.13;1.30;;;;;;;16.80;57.12;99769.56;5013521;28;20817;-84
2024/04/28 07:35:45;;;;;;;1.93;1.30;;;;;;;16.74;57.72;99771.75;5024612;28;20477;-85
2024/04/28 07:38:36;;;;;;;1.50;1.10;;;;;;;16.66;58.01;99786.13;5040960;28;20846;-84
2024/04/28 07:41:24;;;;;;;1.30;1.20;;;;;;;16.58;58.33;99786.00;5023533;28;20480;-85
2024/04/28 07:44:18;;;;;;;2.07;1.30;;;;;;;16.54;58.45;99802.34;5026766;28;20804;-84
2024/04/28 07:47:15;;;;;;;2.33;1.40;;;;;;;16.48;59.47;99798.16;5030473;28;20469;-84
2024/04/28 07:50:03;;;;;;;2.07;1.30;;;;;;;16.54;58.54;99793.22;5027068;28;20517;-83
2024/04/28 07:53:00;;;;;;;1.40;1.00;;;;;;;16.52;58.67;99804.16;5041790;28;20524;-85
2024/04/28 07:55:52;;;;;;;3.67;1.57;;;;;;;16.33;59.65;99803.50;5030027;28;20840;-85
2024/04/28 07:58:42;;;;;;;1.40;1.20;;;;;;;16.36;59.16;99810.81;5010785;28;20470;-85
2024/04/28 08:01:33;;;;;;;2.30;1.10;;;;;;;16.42;59.47;99828.97;5040596;28;20841;-84
2024/04/28 08:04:22;;;;;;;4.63;1.30;;;;;;;16.44;59.43;99842.34;5041937;28;20861;-84
2024/04/28 08:07:11;;;;;;;1.77;1.10;;;;;;;16.34;60.27;99838.44;5033391;28;20516;-85
2024/04/28 08:10:14;;;;;;;1.63;1.40;;;;;;;16.39;59.73;99834.84;4987301;28;20536;-84
2024/04/28 08:13:03;;;;;;;2.60;1.60;;;;;;;16.47;59.66;99832.94;5038655;28;20854;-85
2024/04/28 08:15:55;;;;;;;2.20;1.20;;;;;;;16.46;59.52;99850.94;5037042;28;20797;-84
2024/04/28 08:18:49;;;;;;;2.10;1.43;;;;;;;16.34;60.11;99855.19;5052134;28;20860;-85
2024/04/28 08:21:40;;;;;;;1.70;1.10;;;;;;;16.35;59.69;99862.28;5051331;28;20585;-84
2024/04/28 08:24:28;;;;;;;1.30;1.10;;;;;;;16.38;60.38;99858.44;5029153;28;20519;-83
2024/04/28 08:27:25;;;;;;;2.47;1.37;;;;;;;16.55;59.18;99870.06;5018687;28;20561;-83
2024/04/28 08:30:14;;;;;;;1.20;0.90;;;;;;;16.46;60.01;99870.47;5046638;28;20461;-84
2024/04/28 08:33:03;;;;;;;1.33;1.20;;;;;;;16.44;60.29;99864.66;5024877;28;20841;-84
2024/04/28 08:35:54;;;;;;;1.87;1.10;;;;;;;16.36;60.71;99863.78;5038713;28;20584;-84
2024/04/28 08:38:43;;;;;;;1.43;1.13;;;;;;;16.46;60.24;99876.06;5043596;28;20454;-84
2024/04/28 08:41:33;;;;;;;2.73;1.37;;;;;;;16.52;60.37;99885.06;5036768;28;20462;-83
2024/04/28 08:44:28;;;;;;;1.03;0.90;;;;;;;16.59;59.58;99887.22;5001956;28;20964;-83
2024/04/28 08:47:22;;;;;;;1.23;1.13;;;;;;;16.64;60.39;99898.25;4991588;28;20804;-83
2024/04/28 08:50:12;;;;;;;1.50;1.20;;;;;;;16.67;60.52;99889.56;5014097;28;20814;-83
2024/04/28 08:53:02;;;;;;;1.33;1.10;;;;;;;16.92;59.21;99902.03;5020650;28;20856;-84
2024/04/28 08:55:54;;;;;;;1.60;1.10;;;;;;;16.96;59.71;99888.50;5018719;28;20507;-84
2024/04/28 08:58:42;;;;;;;1.23;1.13;;;;;;;16.97;59.22;99890.00;5014661;28;20818;-84
2024/04/28 09:01:35;;;;;;;4.30;0.93;;;;;;;16.91;57.94;99908.88;5022570;28;20470;-83
2024/04/28 09:04:26;;;;;;;1.47;0.90;;;;;;;16.90;57.15;99907.38;5002304;28;20853;-84
2024/04/28 09:07:15;;;;;;;0.83;0.70;;;;;;;17.18;55.09;99904.03;5024604;28;20470;-85
2024/04/28 09:10:04;;;;;;;1.13;0.80;;;;;;;17.25;53.94;99912.50;5019630;28;20450;-85
2024/04/28 09:12:54;;;;;;;2.70;1.53;;;;;;;17.26;54.43;99908.41;4996387;28;20858;-86
2024/04/28 09:15:43;;;;;;;2.20;0.87;;;;;;;17.28;53.38;99914.22;5029343;28;20780;-84
2024/04/28 09:18:34;;;;;;;4.63;0.97;;;;;;;17.25;52.87;99915.28;5033692;28;21133;-81
2024/04/28 09:21:23;;;;;;;1.57;0.90;;;;;;;17.18;53.43;99918.72;4999588;28;20465;-82
2024/04/28 09:24:20;;;;;;;1.80;0.93;;;;;;;17.28;52.98;99936.56;5029310;28;21112;-82
2024/04/28 09:27:09;;;;;;;1.30;0.80;;;;;;;17.31;53.60;99929.91;5028770;28;20527;-82
2024/04/28 09:29:58;;;;;;;1.00;0.70;;;;;;;17.38;52.70;99929.25;4998693;28;20515;-82
2024/04/28 09:32:47;;;;;;;1.07;0.80;;;;;;;17.51;52.00;99928.47;5026714;28;20462;-82
2024/04/28 09:35:50;;;;;;;1.00;0.90;;;;;;;17.68;51.76;99935.19;5005495;28;20459;-81
2024/04/28 09:38:39;;;;;;;2.13;0.70;;;;;;;17.75;51.89;99934.53;5013331;28;20466;-81
2024/04/28 09:41:30;;;;;;;1.00;0.90;;;;;;;17.80;51.05;99935.69;5026461;28;21166;-82
2024/04/28 09:44:18;;;;;;;3.00;0.80;;;;;;;18.04;51.77;99932.59;5027721;28;21246;-83
2024/04/28 09:47:08;;;;;;;1.63;0.90;;;;;;;18.10;52.09;99942.34;5018754;28;20487;-83
2024/04/28 09:49:57;;;;;;;5.80;0.93;;;;;;;18.41;51.41;99949.75;5027126;28;20596;-83
2024/04/28 09:52:50;;;;;;;1.40;0.80;;;;;;;18.76;50.96;99946.28;5017563;28;20469;-81
2024/04/28 09:55:39;;;;;;;1.07;0.70;;;;;;;18.87;49.65;99956.41;5035305;28;20909;-82
2024/04/28 09:58:30;;;;;;;1.30;1.00;;;;;;;18.87;49.39;99962.00;5031661;28;20530;-82
2024/04/28 10:01:20;;;;;;;1.57;0.70;;;;;;;18.93;48.79;99960.56;5042793;28;20477;-82
2024/04/28 10:04:11;;;;;;;2.10;0.90;;;;;;;18.80;47.89;99969.06;5031311;28;20469;-85
2024/04/28 10:07:18;;;;;;;1.87;0.80;;;;;;;18.58;47.59;99968.91;5028291;28;20516;-84
2024/04/28 10:10:10;;;;;;;1.77;1.30;;;;;;;18.56;48.41;99977.81;5043693;28;20536;-81
2024/04/28 10:13:04;;;;;;;3.87;0.70;;;;;;;18.90;47.48;99967.28;5021299;28;20855;-84
2024/04/28 10:15:54;;;;;;;1.53;0.80;;;;;;;18.84;47.90;99969.47;5026831;28;20806;-84
2024/04/28 10:18:46;;;;;;;0.80;0.63;;;;;;;19.19;47.00;99994.00;5042680;28;20539;-83
2024/04/28 10:21:36;;;;;;;0.83;0.73;;;;;;;19.04;46.75;99982.66;5031683;28;20815;-83
2024/04/28 10:24:24;;;;;;;0.80;0.60;;;;;;;19.07;46.07;99970.38;5003960;28;20467;-83
2024/04/28 10:27:16;;;;;;;1.43;0.93;;;;;;;19.21;46.27;99994.19;5032722;28;20927;-83
2024/04/28 10:30:05;;;;;;;0.70;0.67;;;;;;;19.28;45.04;99996.28;5037129;28;20572;-85
2024/04/28 10:33:04;;;;;;;2.50;1.07;;;;;;;19.59;44.39;99997.19;5044414;28;20833;-85
2024/04/28 10:35:54;;;;;;;1.50;0.90;;;;;;;19.65;43.83;99998.53;5042877;28;20472;-83
2024/04/28 10:38:43;;;;;;;2.07;0.70;;;;;;;19.77;44.08;99991.28;5042908;28;20465;-84
2024/04/28 10:41:32;;;;;;;0.80;0.70;;;;;;;19.75;44.91;100016.31;5022713;28;20872;-83
2024/04/28 10:44:32;;;;;;;1.00;0.80;;;;;;;19.76;44.99;100006.59;5035666;28;20543;-81
2024/04/28 10:47:21;;;;;;;1.23;0.80;;;;;;;19.99;44.87;100001.81;5043092;28;20903;-83
2024/04/28 10:50:10;;;;;;;2.60;1.20;;;;;;;20.12;45.16;100010.13;5053603;28;20907;-82
2024/04/28 10:52:58;;;;;;;2.00;1.80;;;;;;;20.12;44.41;100004.50;5025698;28;20478;-83
2024/04/28 10:55:47;;;;;;;1.17;0.90;;;;;;;20.40;42.80;99995.94;5030765;28;21132;-86
2024/04/28 10:58:36;;;;;;;1.00;0.90;;;;;;;20.24;44.22;100000.78;5032106;28;20483;-85
2024/04/28 11:01:41;;;;;;;1.10;0.97;;;;;;;20.34;44.62;100003.78;5025878;28;20947;-84
2024/04/28 11:04:31;;;;;;;1.83;0.90;;;;;;;20.37;44.36;100008.28;4997025;28;20462;-85
2024/04/28 11:07:20;;;;;;;2.40;0.90;;;;;;;20.56;43.42;100014.28;5026809;28;21037;-83
2024/04/28 11:10:10;;;;;;;1.20;0.90;;;;;;;20.41;42.28;100017.09;5024435;28;20796;-84
2024/04/28 11:13:03;;;;;;;1.80;0.80;;;;;;;20.41;43.13;100014.28;5002298;28;20806;-83
2024/04/28 11:15:52;;;;;;;3.23;0.87;;;;;;;20.46;42.87;100028.16;5014190;28;20466;-82
2024/04/28 11:18:43;;;;;;;0.97;0.87;;;;;;;20.34;42.84;100020.63;5024404;28;20458;-85
2024/04/28 11:21:32;;;;;;;1.20;0.90;;;;;;;20.36;42.76;100006.78;5018345;28;20850;-85
2024/04/28 11:24:21;;;;;;;2.10;0.80;;;;;;;20.44;43.14;100007.53;5025072;28;20462;-85
2024/04/28 11:27:14;;;;;;;1.93;0.77;;;;;;;20.59;43.62;100013.91;5023059;28;20908;-85
2024/04/28 11:30:03;;;;;;;1.00;0.90;;;;;;;20.73;43.12;100006.06;4998528;28;20814;-85
2024/04/28 11:33:05;;;;;;;1.23;1.00;;;;;;;20.93;43.29;99997.47;5038249;28;20468;-86
2024/04/28 11:36:10;;;;;;;1.00;0.80;;;;;;;21.25;42.81;100005.28;5056036;28;20520;-85
2024/04/28 11:39:08;;;;;;;2.10;1.00;;;;;;;21.28;41.40;100032.25;5048429;28;20528;-84
2024/04/28 11:42:00;;;;;;;2.30;0.83;;;;;;;21.17;42.88;100029.84;5040469;28;20494;-85
2024/04/28 11:44:49;;;;;;;0.90;0.80;;;;;;;21.38;42.59;100031.09;5040458;28;20563;-84
2024/04/28 11:47:38;;;;;;;0.93;0.83;;;;;;;21.40;42.67;100033.34;4995919;28;20924;-85
2024/04/28 11:50:27;;;;;;;1.87;0.80;;;;;;;21.59;41.97;100039.31;5026595;28;20517;-85
2024/04/28 11:53:19;;;;;;;2.27;0.90;;;;;;;21.73;41.51;100052.59;5046934;28;20537;-86
2024/04/28 11:56:20;;;;;;;1.67;0.90;;;;;;;21.52;42.06;100059.75;5055516;28;22018;-86
2024/04/28 11:59:13;;;;;;;1.20;0.93;;;;;;;21.61;40.71;100070.41;4994532;28;20475;-84
2024/04/28 12:02:07;;;;;;;1.10;0.70;;;;;;;21.64;41.70;100063.66;5026891;28;20605;-85
2024/04/28 12:04:59;;;;;;;0.80;0.70;;;;;;;21.62;41.57;100060.66;5006500;28;20451;-86
2024/04/28 12:07:54;;;;;;;0.70;0.70;;;;;;;21.58;41.34;100068.75;5028312;28;20470;-85
2024/04/28 12:10:57;;;;;;;1.97;0.80;;;;;;;21.52;41.42;100065.38;5039037;28;20451;-86
2024/04/28 12:13:49;;;;;;;1.73;0.70;;;;;;;21.38;41.81;100064.09;5001854;28;21033;-87
2024/04/28 12:16:39;;;;;;;0.90;0.73;;;;;;;21.31;42.60;100071.25;5054740;28;20547;-83
2024/04/28 12:19:38;;;;;;;1.33;0.90;;;;;;;21.27;42.69;100070.84;5036672;28;20463;-84
2024/04/28 12:23:05;;;;;;;1.17;0.90;;;;;;;21.16;42.37;100081.72;5038283;28;20890;-85
2024/04/28 12:26:01;;;;;;;1.00;0.80;;;;;;;20.64;43.36;100082.44;5015054;28;20555;-84
2024/04/28 12:29:29;;;;;;;1.93;0.80;;;;;;;20.19;43.30;100093.56;5037488;28;20469;-84
2024/04/28 12:41:25;;;;;;;1.00;0.90;;;;;;;19.40;46.97;100120.78;4959596;28;20548;-83
2024/04/28 12:45:09;;;;;;;0.83;0.80;;;;;;;19.22;46.89;100118.97;4957888;28;20868;-84
2024/04/28 12:47:58;;;;;;;0.80;0.80;;;;;;;19.11;46.98;100132.50;4897159;29;20544;-85
2024/04/28 12:50:59;;;;;;;;;;;;;;;;;;;;;
2024/04/28 12:58:29;;;;;;;1.10;1.00;;;;;;;18.59;49.20;100161.47;4934476;29;20785;-84
2024/04/28 13:02:16;;;;;;;1.73;0.90;;;;;;;18.64;48.97;100191.38;4961250;28;20853;-85
2024/04/28 13:22:43;;;;;;;1.33;1.23;;;;;;;18.42;46.95;100225.47;4956900;29;20527;-83
2024/04/28 13:26:06;;;;;;;1.40;1.20;;;;;;;18.17;49.30;100238.13;5049741;23;20461;31
2024/04/28 13:29:05;;;;;;;1.27;1.17;;;;;;;18.13;47.80;100237.72;4892090;29;20480;-83
2024/04/28 13:32:15;;;;;;;1.30;0.80;;;;;;;18.13;46.86;100232.13;4895313;29;20463;-85
2024/04/28 13:35:09;;;;;;;1.00;0.80;;;;;;;18.41;45.89;100240.75;4902011;29;20825;-85
2024/04/28 13:41:10;;;;;;;2.40;0.90;;;;;;;18.36;46.33;100243.66;4906043;29;20484;-85
2024/04/28 13:45:06;;;;;;;;;;;;;;;;;;;;;
2024/04/28 13:51:54;;;;;;;2.20;0.80;;;;;;;18.13;47.66;100257.31;4997164;28;20537;-83
2024/04/28 13:55:30;;;;;;;1.30;0.97;;;;;;;18.36;47.24;100277.97;4908547;28;20952;-85
2024/04/28 13:58:20;;;;;;;1.67;0.80;;;;;;;18.33;46.01;100289.50;4984236;28;20448;-84
2024/04/28 14:04:12;;;;;;;1.10;0.80;;;;;;;18.26;46.05;100310.44;4996755;28;21337;-86
2024/04/28 14:07:04;;;;;;;1.53;0.80;;;;;;;18.09;45.83;100293.25;4996627;28;20484;-85
2024/04/28 14:10:04;;;;;;;1.00;0.83;;;;;;;17.86;47.18;100292.13;4997136;28;20523;-86
2024/04/28 14:13:42;;;;;;;0.93;0.80;;;;;;;17.95;46.36;100277.72;4978311;28;20528;-85
2024/04/28 14:17:18;;;;;;;0.93;0.70;;;;;;;18.12;45.89;100278.16;4965514;28;20465;-85
2024/04/28 14:20:22;;;;;;;2.03;0.80;;;;;;;18.31;46.45;100280.88;4886117;29;20970;-86